createdAt,value
2022-09-02T00:01:57.644Z,11.59
2022-09-02T00:04:25.899Z,11.61
2022-09-02T00:06:54.338Z,11.62
2022-09-02T00:09:23.048Z,11.60
2022-09-02T00:11:50.911Z,11.58
2022-09-02T00:14:24.776Z,11.54
2022-09-02T00:16:51.837Z,11.52
2022-09-02T00:19:24.219Z,11.43
2022-09-02T00:21:51.762Z,11.43
2022-09-02T00:24:18.341Z,11.32
2022-09-02T00:26:45.366Z,11.29
2022-09-02T00:29:13.171Z,11.22
2022-09-02T00:31:39.651Z,11.19
2022-09-02T00:34:06.169Z,11.21
2022-09-02T00:36:33.322Z,11.18
2022-09-02T00:38:59.857Z,11.14
2022-09-02T00:41:28.101Z,11.14
2022-09-02T00:44:00.643Z,11.08
2022-09-02T00:46:30.537Z,11.11
2022-09-02T00:49:12.134Z,11.07
2022-09-02T00:51:46.788Z,11.05
2022-09-02T00:54:14.592Z,11.03
2022-09-02T00:56:43.660Z,10.95
2022-09-02T00:59:14.190Z,10.94
2022-09-02T01:01:40.800Z,10.85
2022-09-02T01:04:07.562Z,10.85
2022-09-02T01:06:34.842Z,10.81
2022-09-02T01:09:08.368Z,10.74
2022-09-02T01:11:39.539Z,10.68
2022-09-02T01:14:07.421Z,10.67
2022-09-02T01:16:42.060Z,10.64
2022-09-02T01:19:16.836Z,10.65
2022-09-02T01:21:47.636Z,10.61
2022-09-02T01:24:14.685Z,10.61
2022-09-02T01:26:41.812Z,10.61
2022-09-02T01:29:09.030Z,10.58
2022-09-02T01:31:35.882Z,10.61
2022-09-02T01:34:03.160Z,10.60
2022-09-02T01:36:30.071Z,10.61
2022-09-02T01:38:57.538Z,10.58
2022-09-02T01:41:24.751Z,10.58
2022-09-02T01:43:51.988Z,10.56
2022-09-02T01:46:19.045Z,10.48
2022-09-02T01:48:46.135Z,10.44
2022-09-02T01:51:16.500Z,10.44
2022-09-02T01:53:44.287Z,10.38
2022-09-02T01:56:11.081Z,10.37
2022-09-02T01:58:38.313Z,10.32
2022-09-02T02:01:05.446Z,10.29
2022-09-02T02:03:32.580Z,10.26
2022-09-02T02:05:59.938Z,10.28
2022-09-02T02:08:26.684Z,10.25
2022-09-02T02:10:53.472Z,10.23
2022-09-02T02:13:20.184Z,10.24
2022-09-02T02:15:46.889Z,10.19
2022-09-02T02:18:13.631Z,10.16
2022-09-02T02:20:40.252Z,10.16
2022-09-02T02:23:11.411Z,10.18
2022-09-02T02:25:38.045Z,10.12
2022-09-02T02:28:05.625Z,10.12
2022-09-02T02:30:32.264Z,10.08
2022-09-02T02:32:59.184Z,10.08
2022-09-02T02:35:25.857Z,10.10
2022-09-02T02:37:52.797Z,10.03
2022-09-02T02:40:22.623Z,9.94
2022-09-02T02:42:49.748Z,9.96
2022-09-02T02:45:16.361Z,9.93
2022-09-02T02:47:43.322Z,9.89
2022-09-02T02:50:13.083Z,9.85
2022-09-02T02:52:41.044Z,9.90
2022-09-02T02:55:09.765Z,9.89
2022-09-02T02:57:39.102Z,9.85
2022-09-02T03:00:15.484Z,9.85
2022-09-02T03:02:42.827Z,9.85
2022-09-02T03:05:10.758Z,9.83
2022-09-02T03:07:37.648Z,9.89
2022-09-02T03:10:08.213Z,9.83
2022-09-02T03:12:36.052Z,9.81
2022-09-02T03:15:03.014Z,9.79
2022-09-02T03:17:29.779Z,9.80
2022-09-02T03:19:57.796Z,9.80
2022-09-02T03:22:24.402Z,9.81
2022-09-02T03:24:50.923Z,9.79
2022-09-02T03:27:17.366Z,9.79
2022-09-02T03:29:44.927Z,9.76
2022-09-02T03:32:11.523Z,9.79
2022-09-02T03:34:41.834Z,9.82
2022-09-02T03:37:08.756Z,9.83
2022-09-02T03:39:37.133Z,9.85
2022-09-02T03:42:05.674Z,9.89
2022-09-02T03:44:34.233Z,9.89
2022-09-02T03:47:00.863Z,9.88
2022-09-02T03:49:30.210Z,9.89
2022-09-02T03:51:56.653Z,9.90
2022-09-02T03:54:23.114Z,9.85
2022-09-02T03:56:49.950Z,9.89
2022-09-02T03:59:16.958Z,9.83
2022-09-02T04:01:43.491Z,9.79
2022-09-02T04:04:10.009Z,9.81
2022-09-02T04:06:36.576Z,9.79
2022-09-02T04:09:04.018Z,9.78
2022-09-02T04:11:30.718Z,9.79
2022-09-02T04:13:58.331Z,9.76
2022-09-02T04:16:31.491Z,9.74
2022-09-02T04:18:59.575Z,9.74
2022-09-02T04:21:26.052Z,9.78
2022-09-02T04:23:52.610Z,9.72
2022-09-02T04:26:20.206Z,9.73
2022-09-02T04:28:48.322Z,9.74
2022-09-02T04:31:17.777Z,9.74
2022-09-02T04:33:45.041Z,9.73
2022-09-02T04:36:14.895Z,9.74
2022-09-02T04:38:41.666Z,9.72
2022-09-02T04:41:10.800Z,9.79
2022-09-02T04:43:37.503Z,9.82
2022-09-02T04:46:12.989Z,9.89
2022-09-02T04:48:40.482Z,9.94
2022-09-02T04:51:10.514Z,9.93
2022-09-02T04:53:37.021Z,10.06
2022-09-02T04:56:05.727Z,10.05
2022-09-02T04:58:32.591Z,10.07
2022-09-02T05:00:59.483Z,10.09
2022-09-02T05:03:26.400Z,10.19
2022-09-02T05:06:01.728Z,10.26
2022-09-02T05:08:28.244Z,10.29
2022-09-02T05:10:56.227Z,10.39
2022-09-02T05:13:23.808Z,10.35
2022-09-02T05:15:50.531Z,10.36
2022-09-02T05:18:17.224Z,10.42
2022-09-02T05:20:43.720Z,10.50
2022-09-02T05:23:11.695Z,10.51
2022-09-02T05:25:39.371Z,10.60
2022-09-02T05:28:08.908Z,10.76
2022-09-02T05:30:40.643Z,10.84
2022-09-02T05:33:07.745Z,10.86
2022-09-02T05:35:40.880Z,10.86
2022-09-02T05:38:12.886Z,10.85
2022-09-02T05:40:40.547Z,10.89
2022-09-02T05:43:07.116Z,10.91
2022-09-02T05:45:34.348Z,10.96
2022-09-02T05:48:20.801Z,11.05
2022-09-02T05:50:47.304Z,11.23
2022-09-02T05:53:16.722Z,11.33
2022-09-02T05:55:43.959Z,11.39
2022-09-02T05:58:10.434Z,11.54
2022-09-02T06:00:40.177Z,11.68
2022-09-02T06:03:06.689Z,11.78
2022-09-02T06:05:33.409Z,11.85
2022-09-02T06:07:59.969Z,12.08
2022-09-02T06:10:26.518Z,12.19
2022-09-02T06:12:53.036Z,12.49
2022-09-02T06:15:19.557Z,12.92
2022-09-02T06:17:45.991Z,13.22
2022-09-02T06:20:12.649Z,13.73
2022-09-02T06:22:39.134Z,14.80
2022-09-02T06:25:05.901Z,15.67
2022-09-02T06:27:33.545Z,17.49
2022-09-02T06:30:00.272Z,18.11
2022-09-02T06:32:26.800Z,20.14
2022-09-02T06:34:53.256Z,22.07
2022-09-02T06:37:19.691Z,21.89
2022-09-02T06:39:48.253Z,23.27
2022-09-02T06:42:15.037Z,23.89
2022-09-02T06:44:42.100Z,24.18
2022-09-02T06:47:08.584Z,23.55
2022-09-02T06:49:35.187Z,25.00
2022-09-02T06:52:01.976Z,25.38
2022-09-02T06:54:28.520Z,26.25
2022-09-02T06:56:55.226Z,25.79
2022-09-02T06:59:22.575Z,25.37
2022-09-02T07:01:49.622Z,26.34
2022-09-02T07:04:35.427Z,26.33
2022-09-02T07:07:04.960Z,27.39
2022-09-02T07:09:31.649Z,28.97
2022-09-02T07:12:04.175Z,28.90
2022-09-02T07:14:31.525Z,29.61
2022-09-02T07:17:00.068Z,27.20
2022-09-02T07:19:26.787Z,27.25
2022-09-02T07:21:54.021Z,28.73
2022-09-02T07:24:21.596Z,28.73
2022-09-02T07:26:49.237Z,26.49
2022-09-02T07:29:16.586Z,28.17
2022-09-02T07:31:45.441Z,30.52
2022-09-02T07:34:13.097Z,30.41
2022-09-02T07:36:40.318Z,31.31
2022-09-02T07:39:08.616Z,30.12
2022-09-02T07:41:36.828Z,30.40
2022-09-02T07:44:04.844Z,30.42
2022-09-02T07:46:32.258Z,30.17
2022-09-02T07:49:00.222Z,30.07
2022-09-02T07:51:29.119Z,30.88
2022-09-02T07:53:57.515Z,30.95
2022-09-02T07:56:24.013Z,31.28
2022-09-02T07:58:50.768Z,31.90
2022-09-02T08:01:22.634Z,31.25
2022-09-02T08:03:50.187Z,31.48
2022-09-02T08:06:17.117Z,31.21
2022-09-02T08:08:48.583Z,31.26
2022-09-02T08:11:15.457Z,32.20
2022-09-02T08:13:52.535Z,31.38
2022-09-02T08:16:19.067Z,31.65
2022-09-02T08:18:45.906Z,30.85
2022-09-02T08:21:13.446Z,30.98
2022-09-02T08:23:41.178Z,30.18
2022-09-02T08:26:08.091Z,31.11
2022-09-02T08:28:35.207Z,31.96
2022-09-02T08:31:05.816Z,31.01
2022-09-02T08:33:32.261Z,30.86
2022-09-02T08:36:03.271Z,31.66
2022-09-02T08:38:29.899Z,30.67
2022-09-02T08:40:56.443Z,31.76
2022-09-02T08:43:43.038Z,30.22
2022-09-02T08:46:12.052Z,31.14
2022-09-02T08:48:42.001Z,28.18
2022-09-02T08:51:11.701Z,30.32
2022-09-02T08:53:51.175Z,31.62
2022-09-02T08:56:18.489Z,30.91
2022-09-02T08:58:49.116Z,30.65
2022-09-02T09:01:21.555Z,30.66
2022-09-02T09:03:59.311Z,30.66
2022-09-02T09:06:45.042Z,29.47
2022-09-02T09:09:27.203Z,28.49
2022-09-02T09:12:07.268Z,27.58
2022-09-02T09:14:36.693Z,29.08
2022-09-02T09:17:12.696Z,31.76
2022-09-02T09:19:53.942Z,31.55
2022-09-02T09:22:28.229Z,33.50
2022-09-02T09:24:57.255Z,32.61
2022-09-02T09:27:23.962Z,31.39
2022-09-02T09:29:51.462Z,29.04
2022-09-02T09:32:46.539Z,27.48
2022-09-02T09:35:14.798Z,26.98
2022-09-02T09:37:46.442Z,26.06
2022-09-02T09:40:20.131Z,24.39
2022-09-02T09:42:50.045Z,23.92
2022-09-02T09:45:24.352Z,23.79
2022-09-02T09:48:29.072Z,23.99
2022-09-02T09:50:55.599Z,24.14
2022-09-02T09:53:26.992Z,24.88
2022-09-02T09:56:07.764Z,24.86
2022-09-02T09:58:40.702Z,24.63
2022-09-02T10:01:20.906Z,24.35
2022-09-02T10:03:55.717Z,23.57
2022-09-02T10:06:36.052Z,23.66
2022-09-02T10:09:22.835Z,23.39
2022-09-02T10:11:57.376Z,22.96
2022-09-02T10:14:26.599Z,22.42
2022-09-02T10:17:08.019Z,22.43
2022-09-02T10:19:41.124Z,22.16
2022-09-02T10:22:59.961Z,22.17
2022-09-02T10:25:48.690Z,22.62
2022-09-02T10:28:37.256Z,22.50
2022-09-02T10:31:20.958Z,23.64
2022-09-02T10:33:54.161Z,23.85
2022-09-02T10:36:28.700Z,22.93
2022-09-02T10:39:03.405Z,22.89
2022-09-02T10:44:17.481Z,23.19
2022-09-02T10:47:00.403Z,23.58
2022-09-02T10:49:54.872Z,23.92
2022-09-02T10:52:46.470Z,24.49
2022-09-02T10:55:15.982Z,24.50
2022-09-02T10:57:54.575Z,23.31
2022-09-02T11:00:23.154Z,23.82
2022-09-02T11:02:55.729Z,24.14
2022-09-02T11:05:33.933Z,22.73
2022-09-02T11:08:35.861Z,24.13
2022-09-02T11:11:08.061Z,25.01
2022-09-02T11:14:15.657Z,26.46
2022-09-02T11:17:13.025Z,28.72
2022-09-02T11:19:51.534Z,28.53
2022-09-02T11:22:37.177Z,27.42
2022-09-02T11:25:07.537Z,25.67
2022-09-02T11:28:18.852Z,25.83
2022-09-02T11:33:26.607Z,24.88
2022-09-02T11:35:53.511Z,26.41
2022-09-02T11:38:33.208Z,26.41
2022-09-02T11:41:38.018Z,26.78
2022-09-02T11:44:35.803Z,25.24
2022-09-02T11:47:09.061Z,25.36
2022-09-02T11:49:38.252Z,24.19
2022-09-02T11:52:29.402Z,23.45
2022-09-02T11:55:08.706Z,24.22
2022-09-02T11:57:35.435Z,23.36
2022-09-02T12:00:06.470Z,23.32
2022-09-02T12:02:37.746Z,23.90
2022-09-02T12:05:35.300Z,24.48
2022-09-02T12:08:11.802Z,23.89
2022-09-02T12:10:45.338Z,24.48
2022-09-02T12:13:41.071Z,23.80
2022-09-02T12:16:16.916Z,23.70
2022-09-02T12:18:57.283Z,23.51
2022-09-02T12:21:25.416Z,23.62
2022-09-02T12:23:53.637Z,22.94
2022-09-02T12:26:22.304Z,22.60
2022-09-02T12:28:50.382Z,22.31
2022-09-02T12:31:43.240Z,23.18
2022-09-02T12:34:24.907Z,24.04
2022-09-02T12:36:56.098Z,24.71
2022-09-02T12:39:28.495Z,24.83
2022-09-02T12:41:58.048Z,24.53
2022-09-02T12:44:29.211Z,23.36
2022-09-02T12:47:27.019Z,22.81
2022-09-02T12:50:02.495Z,22.42
2022-09-02T12:52:43.664Z,22.16
2022-09-02T12:55:10.420Z,22.50
2022-09-02T12:57:43.882Z,22.73
2022-09-02T13:00:15.748Z,22.72
2022-09-02T13:03:06.271Z,22.97
2022-09-02T13:05:35.844Z,22.58
2022-09-02T13:08:29.896Z,22.67
2022-09-02T13:10:57.631Z,22.60
2022-09-02T13:14:02.576Z,22.58
2022-09-02T13:16:47.070Z,21.77
2022-09-02T13:19:34.365Z,21.65
2022-09-02T13:22:42.427Z,22.26
2022-09-02T13:25:20.950Z,21.82
2022-09-02T13:28:23.945Z,21.55
2022-09-02T13:31:09.528Z,22.00
2022-09-02T13:33:38.400Z,21.90
2022-09-02T13:36:08.889Z,22.28
2022-09-02T13:38:36.052Z,21.79
2022-09-02T13:41:02.758Z,22.21
2022-09-02T13:43:29.414Z,22.18
2022-09-02T13:46:00.714Z,22.00
2022-09-02T13:48:33.692Z,21.71
2022-09-02T13:51:09.223Z,21.60
2022-09-02T13:53:53.751Z,21.40
2022-09-02T13:56:29.121Z,22.54
2022-09-02T13:58:58.904Z,23.71
2022-09-02T14:01:33.066Z,24.50
2022-09-02T14:06:37.605Z,23.91
2022-09-02T14:09:07.688Z,23.43
2022-09-02T14:11:46.254Z,23.16
2022-09-02T14:14:14.691Z,22.73
2022-09-02T14:16:41.434Z,23.08
2022-09-02T14:19:23.238Z,22.97
2022-09-02T14:21:56.039Z,23.15
2022-09-02T14:24:27.653Z,23.11
2022-09-02T14:26:58.937Z,23.24
2022-09-02T14:29:27.280Z,23.12
2022-09-02T14:32:12.706Z,22.70
2022-09-02T14:34:44.067Z,22.46
2022-09-02T14:37:25.484Z,22.35
2022-09-02T14:40:11.830Z,22.53
2022-09-02T14:42:57.212Z,22.59
2022-09-02T14:45:29.701Z,22.85
2022-09-02T14:47:58.929Z,22.67
2022-09-02T14:50:30.407Z,22.99
2022-09-02T14:53:06.546Z,22.56
2022-09-02T14:55:44.194Z,22.21
2022-09-02T14:58:10.685Z,22.02
2022-09-02T15:00:39.164Z,21.90
2022-09-02T15:03:06.990Z,21.57
2022-09-02T15:05:33.497Z,21.66
2022-09-02T15:08:00.016Z,21.46
2022-09-02T15:10:27.831Z,21.64
2022-09-02T15:12:55.968Z,21.41
2022-09-02T15:15:22.739Z,21.62
2022-09-02T15:17:49.212Z,21.58
2022-09-02T15:20:15.888Z,21.61
2022-09-02T15:22:43.287Z,21.67
2022-09-02T15:25:11.910Z,22.12
2022-09-02T15:27:38.464Z,22.08
2022-09-02T15:30:06.273Z,21.71
2022-09-02T15:32:32.815Z,22.01
2022-09-02T15:34:59.228Z,22.20
2022-09-02T15:37:27.475Z,22.06
2022-09-02T15:39:53.963Z,21.95
2022-09-02T15:42:20.434Z,21.86
2022-09-02T15:44:46.861Z,21.92
2022-09-02T15:47:13.540Z,21.76
2022-09-02T15:49:39.968Z,21.86
2022-09-02T15:52:06.958Z,21.66
2022-09-02T15:54:33.406Z,21.31
2022-09-02T15:57:00.045Z,21.39
2022-09-02T15:59:27.413Z,21.31
2022-09-02T16:01:56.340Z,20.69
2022-09-02T16:04:23.237Z,20.87
2022-09-02T16:06:52.442Z,20.93
2022-09-02T16:09:19.166Z,20.77
2022-09-02T16:11:47.694Z,20.71
2022-09-02T16:14:15.021Z,20.55
2022-09-02T16:16:49.843Z,20.56
2022-09-02T16:19:22.393Z,20.53
2022-09-02T16:21:52.617Z,20.59
2022-09-02T16:24:21.399Z,20.58
2022-09-02T16:26:48.351Z,20.44
2022-09-02T16:29:19.500Z,20.49
2022-09-02T16:32:02.380Z,20.33
2022-09-02T16:34:34.042Z,20.38
2022-09-02T16:37:00.714Z,20.40
2022-09-02T16:39:27.277Z,20.42
2022-09-02T16:41:54.519Z,20.32
2022-09-02T16:44:23.133Z,20.31
2022-09-02T16:46:51.060Z,20.31
2022-09-02T16:49:19.332Z,20.23
2022-09-02T16:51:46.647Z,20.14
2022-09-02T16:54:17.697Z,20.02
2022-09-02T16:56:57.550Z,19.94
2022-09-02T16:59:23.999Z,19.82
2022-09-02T17:01:50.481Z,19.68
2022-09-02T17:04:17.147Z,19.54
2022-09-02T17:06:43.765Z,19.51
2022-09-02T17:09:10.227Z,19.39
2022-09-02T17:11:39.811Z,19.27
2022-09-02T17:14:10.489Z,19.20
2022-09-02T17:16:42.783Z,19.10
2022-09-02T17:19:20.810Z,19.10
2022-09-02T17:21:50.879Z,19.01
2022-09-02T17:24:18.797Z,18.99
2022-09-02T17:26:47.396Z,18.96
2022-09-02T17:29:46.773Z,18.92
2022-09-02T17:32:05.586Z,18.85
2022-09-02T17:34:33.707Z,18.71
2022-09-02T17:37:00.387Z,18.58
2022-09-02T17:39:26.936Z,18.44
2022-09-02T17:41:59.486Z,18.29
2022-09-02T17:44:35.271Z,18.30
2022-09-02T17:47:21.632Z,18.25
2022-09-02T17:49:48.628Z,18.12
2022-09-02T17:52:18.629Z,18.02
2022-09-02T17:54:48.293Z,17.87
2022-09-02T17:57:46.215Z,17.84
2022-09-02T18:00:18.886Z,17.65
2022-09-02T18:03:13.905Z,17.60
2022-09-02T18:05:55.054Z,17.52
2022-09-02T18:08:40.830Z,17.46
2022-09-02T18:11:07.875Z,17.44
2022-09-02T18:13:47.773Z,17.40
2022-09-02T18:16:23.076Z,17.34
2022-09-02T18:18:56.679Z,17.27
2022-09-02T18:21:30.421Z,17.24
2022-09-02T18:24:25.375Z,17.28
2022-09-02T18:27:14.905Z,17.30
2022-09-02T18:29:50.938Z,17.22
2022-09-02T18:32:29.760Z,17.19
2022-09-02T18:35:20.584Z,17.23
2022-09-02T18:38:02.186Z,17.17
2022-09-02T18:40:44.296Z,17.16
2022-09-02T18:43:47.545Z,17.24
2022-09-02T18:46:16.148Z,17.29
2022-09-02T18:48:43.665Z,17.30
2022-09-02T18:51:24.301Z,17.32
2022-09-02T18:53:57.225Z,17.31
2022-09-02T18:56:28.252Z,17.31
2022-09-02T18:58:57.788Z,17.32
2022-09-02T19:01:27.280Z,17.36
2022-09-02T19:03:53.878Z,17.35
2022-09-02T19:06:25.439Z,17.35
2022-09-02T19:09:01.463Z,17.25
2022-09-02T19:11:33.001Z,17.13
2022-09-02T19:14:14.868Z,17.14
2022-09-02T19:16:41.771Z,17.22
2022-09-02T19:19:10.403Z,17.16
2022-09-02T19:21:50.127Z,17.24
2022-09-02T19:24:25.460Z,17.29
2022-09-02T19:26:58.395Z,17.20
2022-09-02T19:29:25.407Z,17.12
2022-09-02T19:31:54.789Z,17.27
2022-09-02T19:34:22.807Z,17.25
2022-09-02T19:36:51.447Z,17.09
2022-09-02T19:39:18.261Z,16.99
2022-09-02T19:41:45.847Z,17.00
2022-09-02T19:44:15.495Z,16.97
2022-09-02T19:48:05.469Z,17.01
2022-09-02T19:49:29.029Z,17.01
2022-09-02T19:51:58.959Z,16.90
2022-09-02T19:54:26.701Z,16.82
2022-09-02T19:56:53.522Z,16.83
2022-09-02T20:01:50.955Z,16.74
2022-09-02T20:04:18.666Z,16.63
2022-09-02T20:06:45.323Z,16.61
2022-09-02T20:09:12.678Z,16.54
2022-09-02T20:11:41.058Z,16.48
2022-09-02T20:14:07.817Z,16.40
2022-09-02T20:16:34.414Z,16.41
2022-09-02T20:19:01.066Z,16.37
2022-09-02T20:21:32.880Z,16.28
2022-09-02T20:24:04.682Z,16.27
2022-09-02T20:26:39.942Z,16.16
2022-09-02T20:29:39.561Z,16.36
2022-09-02T20:32:06.030Z,16.32
2022-09-02T20:34:41.905Z,16.16
2022-09-02T20:37:10.995Z,16.08
2022-09-02T20:39:56.949Z,16.06
2022-09-02T20:43:00.681Z,15.98
2022-09-02T20:45:36.306Z,15.95
2022-09-02T20:48:39.877Z,15.89
2022-09-02T20:51:16.204Z,15.91
2022-09-02T20:54:21.201Z,15.87
2022-09-02T20:57:17.461Z,15.91
2022-09-02T20:59:59.741Z,15.90
2022-09-02T21:02:29.694Z,15.99
2022-09-02T21:05:03.735Z,16.06
2022-09-02T21:07:39.260Z,16.04
2022-09-02T21:10:19.641Z,15.97
2022-09-02T21:12:55.178Z,16.00
2022-09-02T21:16:00.846Z,15.98
2022-09-02T21:19:05.968Z,16.03
2022-09-02T21:21:35.244Z,15.95
2022-09-02T21:24:05.818Z,16.00
2022-09-02T21:26:49.372Z,15.98
2022-09-02T21:29:22.795Z,15.96
2022-09-02T21:31:58.194Z,16.00
2022-09-02T21:34:29.834Z,15.84
2022-09-02T21:36:57.773Z,15.77
2022-09-02T21:39:27.084Z,15.72
2022-09-02T21:42:15.251Z,15.65
2022-09-02T21:45:00.993Z,15.59
2022-09-02T21:47:43.666Z,15.56
2022-09-02T21:50:39.194Z,15.58
2022-09-02T21:53:30.367Z,15.50
2022-09-02T21:55:59.261Z,15.47
2022-09-02T21:58:43.647Z,15.44
2022-09-02T22:01:21.623Z,15.38
2022-09-02T22:03:51.194Z,15.32
2022-09-02T22:06:26.926Z,15.27
2022-09-02T22:09:02.919Z,15.21
2022-09-02T22:11:51.045Z,15.20
2022-09-02T22:14:56.144Z,15.14
2022-09-02T22:17:35.351Z,15.11
2022-09-02T22:20:05.414Z,15.00
2022-09-02T22:22:37.120Z,14.93
2022-09-02T22:25:03.894Z,14.81
2022-09-02T22:27:45.273Z,14.72
2022-09-02T22:30:15.019Z,14.60
2022-09-02T22:32:48.071Z,14.48
2022-09-02T22:35:25.078Z,14.34
2022-09-02T22:37:58.320Z,14.20
2022-09-02T22:40:26.003Z,14.10
2022-09-02T22:42:57.175Z,14.00
2022-09-02T22:45:48.496Z,13.89
2022-09-02T22:48:37.260Z,13.82
2022-09-02T22:51:28.412Z,13.70
2022-09-02T22:53:54.864Z,13.57
2022-09-02T22:56:35.995Z,13.49
2022-09-02T22:59:09.607Z,13.41
2022-09-02T23:01:53.575Z,13.35
2022-09-02T23:08:08.534Z,13.16
2022-09-02T23:10:50.433Z,13.13
2022-09-02T23:13:23.106Z,13.07
2022-09-02T23:16:12.216Z,13.05
2022-09-02T23:18:40.579Z,13.04
2022-09-02T23:21:17.210Z,13.09
2022-09-02T23:23:54.856Z,13.06
2022-09-02T23:26:45.269Z,13.07
2022-09-02T23:29:25.940Z,13.14
2022-09-02T23:32:00.825Z,13.22
2022-09-02T23:34:38.958Z,13.36
2022-09-02T23:37:37.725Z,13.38
2022-09-02T23:40:20.407Z,13.48
2022-09-02T23:42:47.799Z,13.49
2022-09-02T23:45:20.160Z,13.49
2022-09-02T23:47:54.617Z,13.48
2022-09-02T23:50:33.477Z,13.54
2022-09-02T23:53:09.563Z,13.53
2022-09-02T23:55:48.614Z,13.52
2022-09-02T23:58:27.258Z,13.57
